Saltar para o conteúdo principal

Cabo Raso

ID 1210765 · 38.7090, -9.4854 mapa

Última leitura · 2026-05-09 19:00 (Europe/Lisbon)

Temperatura
17.1 °C
Humidade
79 %
Pressão
Precipitação
0.0 mm
Radiação
Velocidade do vento
28.4 km/h
Direcção do vento
SW · Sudoeste

Histórico de 24 horas

Hora (Europe/Lisbon) Temperatura Humidade Pressão Chuva Vento Direcção
2026-05-09 19:00 17.1 °C 79 % 0.0 mm 28.4 km/h SW
2026-05-09 18:00 16.4 °C 83 % 0.0 mm 23.8 km/h SW
2026-05-09 17:00 15.7 °C 85 % 0.1 mm 22.3 km/h S
2026-05-09 16:00 16.7 °C 79 % 0.9 mm 32.4 km/h SW
2026-05-09 15:00 17.4 °C 80 % 0.0 mm 29.2 km/h SW
2026-05-09 14:00 17.2 °C 81 % 0.0 mm 29.5 km/h S
2026-05-09 13:00 16.8 °C 79 % 0.0 mm 33.5 km/h S
2026-05-09 12:00 16.8 °C 77 % 0.0 mm 28.1 km/h S
2026-05-09 11:00 16.1 °C 81 % 0.0 mm 28.1 km/h S
2026-05-09 10:00 15.5 °C 84 % 0.0 mm 25.2 km/h S
2026-05-09 09:00 14.7 °C 87 % 0.0 mm 21.6 km/h S
2026-05-09 08:00 13.5 °C 94 % 0.0 mm 20.5 km/h SE
2026-05-09 07:00 12.9 °C 94 % 0.6 mm 10.8 km/h E
2026-05-09 06:00 13.0 °C 93 % 9.5 mm 18.7 km/h SW
2026-05-09 05:00 14.0 °C 91 % 2.0 mm 30.2 km/h SE
2026-05-09 04:00 13.5 °C 94 % 0.0 mm 25.6 km/h SE
2026-05-09 03:00 13.2 °C 92 % 0.0 mm 15.5 km/h E
2026-05-09 02:00 13.6 °C 89 % 0.0 mm 14.8 km/h SE
2026-05-09 01:00 14.8 °C 86 % 0.0 mm 26.6 km/h SE
2026-05-09 00:00 15.7 °C 87 % 0.1 mm 46.4 km/h S
2026-05-08 23:00 15.6 °C 88 % 1.5 mm 48.2 km/h S
2026-05-08 22:00 16.2 °C 85 % 0.3 mm 30.2 km/h SE
2026-05-08 21:00 16.5 °C 82 % 0.0 mm 32.4 km/h SE
2026-05-08 20:00 16.6 °C 83 % 0.0 mm 31.7 km/h SE